sensor_id;sensor_type;location;lat;lon;timestamp;P1;durP1;ratioP1;P2;durP2;ratioP2
22129;SDS011;11231;50.746;4.272;2023-07-31T00:00:49;21.40;;;5.23;;
22129;SDS011;11231;50.746;4.272;2023-07-31T00:03:15;19.43;;;5.20;;
22129;SDS011;11231;50.746;4.272;2023-07-31T00:05:40;20.40;;;5.13;;
22129;SDS011;11231;50.746;4.272;2023-07-31T00:08:06;18.37;;;5.67;;
22129;SDS011;11231;50.746;4.272;2023-07-31T00:10:32;19.17;;;5.10;;
22129;SDS011;11231;50.746;4.272;2023-07-31T00:12:58;14.97;;;5.13;;
22129;SDS011;11231;50.746;4.272;2023-07-31T00:15:24;15.23;;;4.97;;
22129;SDS011;11231;50.746;4.272;2023-07-31T00:17:50;16.33;;;4.90;;
22129;SDS011;11231;50.746;4.272;2023-07-31T00:20:15;21.87;;;5.63;;
22129;SDS011;11231;50.746;4.272;2023-07-31T00:22:41;17.57;;;4.80;;
22129;SDS011;11231;50.746;4.272;2023-07-31T00:25:07;14.70;;;5.23;;
22129;SDS011;11231;50.746;4.272;2023-07-31T00:27:33;17.07;;;4.40;;
22129;SDS011;11231;50.746;4.272;2023-07-31T00:29:58;15.40;;;4.73;;
22129;SDS011;11231;50.746;4.272;2023-07-31T00:32:24;14.77;;;4.67;;
22129;SDS011;11231;50.746;4.272;2023-07-31T00:34:50;18.97;;;4.60;;
22129;SDS011;11231;50.746;4.272;2023-07-31T00:37:16;15.40;;;5.07;;
22129;SDS011;11231;50.746;4.272;2023-07-31T00:39:42;14.20;;;5.23;;
22129;SDS011;11231;50.746;4.272;2023-07-31T00:42:07;17.60;;;5.00;;
22129;SDS011;11231;50.746;4.272;2023-07-31T00:44:33;15.30;;;4.83;;
22129;SDS011;11231;50.746;4.272;2023-07-31T00:46:59;17.57;;;5.17;;
22129;SDS011;11231;50.746;4.272;2023-07-31T00:49:25;18.27;;;4.97;;
22129;SDS011;11231;50.746;4.272;2023-07-31T00:51:52;15.63;;;4.97;;
22129;SDS011;11231;50.746;4.272;2023-07-31T00:54:18;14.00;;;4.87;;
22129;SDS011;11231;50.746;4.272;2023-07-31T00:56:47;18.90;;;5.13;;
22129;SDS011;11231;50.746;4.272;2023-07-31T00:59:13;17.70;;;5.07;;
22129;SDS011;11231;50.746;4.272;2023-07-31T01:01:39;18.00;;;5.37;;
22129;SDS011;11231;50.746;4.272;2023-07-31T01:04:05;22.63;;;5.40;;
22129;SDS011;11231;50.746;4.272;2023-07-31T01:06:48;19.20;;;6.00;;
22129;SDS011;11231;50.746;4.272;2023-07-31T01:12:13;19.17;;;5.17;;
22129;SDS011;11231;50.746;4.272;2023-07-31T01:14:40;16.27;;;5.27;;
22129;SDS011;11231;50.746;4.272;2023-07-31T01:17:15;18.93;;;5.10;;
22129;SDS011;11231;50.746;4.272;2023-07-31T01:19:41;15.57;;;5.30;;
22129;SDS011;11231;50.746;4.272;2023-07-31T01:22:16;16.43;;;5.33;;
22129;SDS011;11231;50.746;4.272;2023-07-31T01:27:14;17.20;;;5.83;;
22129;SDS011;11231;50.746;4.272;2023-07-31T01:29:52;17.83;;;5.27;;
22129;SDS011;11231;50.746;4.272;2023-07-31T01:32:25;19.87;;;5.40;;
22129;SDS011;11231;50.746;4.272;2023-07-31T01:34:54;16.30;;;5.67;;
22129;SDS011;11231;50.746;4.272;2023-07-31T01:37:22;16.13;;;5.20;;
22129;SDS011;11231;50.746;4.272;2023-07-31T01:39:54;15.13;;;5.40;;
22129;SDS011;11231;50.746;4.272;2023-07-31T01:42:19;17.47;;;5.77;;
22129;SDS011;11231;50.746;4.272;2023-07-31T01:44:45;16.90;;;5.73;;
22129;SDS011;11231;50.746;4.272;2023-07-31T01:47:10;13.17;;;5.40;;
22129;SDS011;11231;50.746;4.272;2023-07-31T01:49:36;15.53;;;5.43;;
22129;SDS011;11231;50.746;4.272;2023-07-31T01:52:02;13.63;;;5.50;;
22129;SDS011;11231;50.746;4.272;2023-07-31T01:54:28;17.53;;;5.23;;
22129;SDS011;11231;50.746;4.272;2023-07-31T01:56:53;17.30;;;5.60;;
22129;SDS011;11231;50.746;4.272;2023-07-31T01:59:19;17.90;;;5.50;;
22129;SDS011;11231;50.746;4.272;2023-07-31T02:01:45;15.23;;;5.87;;
22129;SDS011;11231;50.746;4.272;2023-07-31T02:04:11;15.23;;;5.40;;
22129;SDS011;11231;50.746;4.272;2023-07-31T02:06:36;12.87;;;5.27;;
22129;SDS011;11231;50.746;4.272;2023-07-31T02:09:05;16.33;;;5.93;;
22129;SDS011;11231;50.746;4.272;2023-07-31T02:11:31;11.67;;;5.10;;
22129;SDS011;11231;50.746;4.272;2023-07-31T02:13:56;15.60;;;5.27;;
22129;SDS011;11231;50.746;4.272;2023-07-31T02:16:22;14.80;;;4.70;;
22129;SDS011;11231;50.746;4.272;2023-07-31T02:18:48;11.60;;;4.67;;
22129;SDS011;11231;50.746;4.272;2023-07-31T02:21:14;12.27;;;4.90;;
22129;SDS011;11231;50.746;4.272;2023-07-31T02:23:39;12.60;;;4.70;;
22129;SDS011;11231;50.746;4.272;2023-07-31T02:26:05;13.10;;;5.03;;
22129;SDS011;11231;50.746;4.272;2023-07-31T02:28:30;13.10;;;4.70;;
22129;SDS011;11231;50.746;4.272;2023-07-31T02:30:56;12.20;;;4.80;;
22129;SDS011;11231;50.746;4.272;2023-07-31T02:33:22;11.70;;;4.80;;
22129;SDS011;11231;50.746;4.272;2023-07-31T02:35:48;10.07;;;4.27;;
22129;SDS011;11231;50.746;4.272;2023-07-31T02:38:13;15.00;;;4.13;;
22129;SDS011;11231;50.746;4.272;2023-07-31T02:40:40;9.47;;;4.10;;
22129;SDS011;11231;50.746;4.272;2023-07-31T02:43:08;12.43;;;4.30;;
22129;SDS011;11231;50.746;4.272;2023-07-31T02:45:35;10.50;;;4.10;;
22129;SDS011;11231;50.746;4.272;2023-07-31T02:48:01;12.77;;;4.50;;
22129;SDS011;11231;50.746;4.272;2023-07-31T02:50:26;10.73;;;4.07;;
22129;SDS011;11231;50.746;4.272;2023-07-31T02:52:55;9.80;;;3.70;;
22129;SDS011;11231;50.746;4.272;2023-07-31T02:55:20;12.37;;;4.60;;
22129;SDS011;11231;50.746;4.272;2023-07-31T02:57:46;12.80;;;4.23;;
22129;SDS011;11231;50.746;4.272;2023-07-31T03:00:12;9.93;;;3.77;;
22129;SDS011;11231;50.746;4.272;2023-07-31T03:02:38;12.27;;;4.00;;
22129;SDS011;11231;50.746;4.272;2023-07-31T03:05:04;9.93;;;4.27;;
22129;SDS011;11231;50.746;4.272;2023-07-31T03:07:30;12.57;;;4.03;;
22129;SDS011;11231;50.746;4.272;2023-07-31T03:09:56;9.60;;;4.40;;
22129;SDS011;11231;50.746;4.272;2023-07-31T03:12:22;12.03;;;3.80;;
22129;SDS011;11231;50.746;4.272;2023-07-31T03:14:50;8.80;;;4.10;;
22129;SDS011;11231;50.746;4.272;2023-07-31T03:17:16;10.10;;;3.93;;
22129;SDS011;11231;50.746;4.272;2023-07-31T03:19:42;12.20;;;3.90;;
22129;SDS011;11231;50.746;4.272;2023-07-31T03:22:08;11.17;;;4.07;;
22129;SDS011;11231;50.746;4.272;2023-07-31T03:24:33;9.77;;;3.63;;
22129;SDS011;11231;50.746;4.272;2023-07-31T03:26:59;12.03;;;4.20;;
22129;SDS011;11231;50.746;4.272;2023-07-31T03:29:26;10.63;;;3.97;;
22129;SDS011;11231;50.746;4.272;2023-07-31T03:31:51;11.20;;;4.23;;
22129;SDS011;11231;50.746;4.272;2023-07-31T03:34:17;9.03;;;3.93;;
22129;SDS011;11231;50.746;4.272;2023-07-31T03:36:43;12.77;;;4.33;;
22129;SDS011;11231;50.746;4.272;2023-07-31T03:39:09;13.03;;;3.93;;
22129;SDS011;11231;50.746;4.272;2023-07-31T03:41:35;12.63;;;4.33;;
22129;SDS011;11231;50.746;4.272;2023-07-31T03:44:01;12.17;;;4.40;;
22129;SDS011;11231;50.746;4.272;2023-07-31T03:46:26;10.07;;;3.83;;
22129;SDS011;11231;50.746;4.272;2023-07-31T03:48:52;14.73;;;4.03;;
22129;SDS011;11231;50.746;4.272;2023-07-31T03:51:18;10.73;;;4.70;;
22129;SDS011;11231;50.746;4.272;2023-07-31T03:53:44;12.90;;;4.10;;
22129;SDS011;11231;50.746;4.272;2023-07-31T03:56:10;12.60;;;4.23;;
22129;SDS011;11231;50.746;4.272;2023-07-31T03:58:36;12.40;;;4.80;;
22129;SDS011;11231;50.746;4.272;2023-07-31T04:01:02;9.80;;;3.70;;
22129;SDS011;11231;50.746;4.272;2023-07-31T04:03:28;14.77;;;3.77;;
22129;SDS011;11231;50.746;4.272;2023-07-31T04:05:54;9.63;;;4.20;;
22129;SDS011;11231;50.746;4.272;2023-07-31T04:08:23;12.80;;;3.97;;
22129;SDS011;11231;50.746;4.272;2023-07-31T04:10:49;13.00;;;4.50;;
22129;SDS011;11231;50.746;4.272;2023-07-31T04:13:15;10.57;;;3.90;;
22129;SDS011;11231;50.746;4.272;2023-07-31T04:15:41;11.23;;;3.93;;
22129;SDS011;11231;50.746;4.272;2023-07-31T04:18:06;10.50;;;4.03;;
22129;SDS011;11231;50.746;4.272;2023-07-31T04:20:32;12.30;;;4.10;;
22129;SDS011;11231;50.746;4.272;2023-07-31T04:22:58;11.60;;;4.07;;
22129;SDS011;11231;50.746;4.272;2023-07-31T04:25:24;13.27;;;4.03;;
22129;SDS011;11231;50.746;4.272;2023-07-31T04:27:49;11.00;;;3.80;;
22129;SDS011;11231;50.746;4.272;2023-07-31T04:30:15;10.90;;;3.93;;
22129;SDS011;11231;50.746;4.272;2023-07-31T04:32:41;12.00;;;4.30;;
22129;SDS011;11231;50.746;4.272;2023-07-31T04:35:06;12.30;;;4.27;;
22129;SDS011;11231;50.746;4.272;2023-07-31T04:37:32;11.53;;;4.20;;
22129;SDS011;11231;50.746;4.272;2023-07-31T04:39:58;11.90;;;3.97;;
22129;SDS011;11231;50.746;4.272;2023-07-31T04:42:24;13.93;;;3.77;;
22129;SDS011;11231;50.746;4.272;2023-07-31T04:44:50;10.70;;;4.23;;
22129;SDS011;11231;50.746;4.272;2023-07-31T04:47:15;11.90;;;4.23;;
22129;SDS011;11231;50.746;4.272;2023-07-31T04:49:41;11.17;;;3.93;;
22129;SDS011;11231;50.746;4.272;2023-07-31T04:52:07;11.27;;;4.20;;
22129;SDS011;11231;50.746;4.272;2023-07-31T04:54:32;13.53;;;4.17;;
22129;SDS011;11231;50.746;4.272;2023-07-31T04:56:58;10.07;;;3.97;;
22129;SDS011;11231;50.746;4.272;2023-07-31T04:59:24;12.83;;;4.17;;
22129;SDS011;11231;50.746;4.272;2023-07-31T05:01:49;13.33;;;4.13;;
22129;SDS011;11231;50.746;4.272;2023-07-31T05:04:15;14.13;;;4.43;;
22129;SDS011;11231;50.746;4.272;2023-07-31T05:06:41;11.10;;;4.30;;
22129;SDS011;11231;50.746;4.272;2023-07-31T05:09:07;9.77;;;3.80;;
22129;SDS011;11231;50.746;4.272;2023-07-31T05:11:34;12.80;;;4.07;;
22129;SDS011;11231;50.746;4.272;2023-07-31T05:14:00;12.30;;;4.20;;
22129;SDS011;11231;50.746;4.272;2023-07-31T05:16:26;12.60;;;4.50;;
22129;SDS011;11231;50.746;4.272;2023-07-31T05:18:52;13.57;;;4.30;;
22129;SDS011;11231;50.746;4.272;2023-07-31T05:21:17;15.03;;;4.80;;
22129;SDS011;11231;50.746;4.272;2023-07-31T05:23:43;12.07;;;4.20;;
22129;SDS011;11231;50.746;4.272;2023-07-31T05:26:11;14.73;;;4.47;;
22129;SDS011;11231;50.746;4.272;2023-07-31T05:28:37;11.93;;;4.17;;
22129;SDS011;11231;50.746;4.272;2023-07-31T05:31:03;11.60;;;4.20;;
22129;SDS011;11231;50.746;4.272;2023-07-31T05:33:30;11.57;;;4.50;;
22129;SDS011;11231;50.746;4.272;2023-07-31T05:35:56;12.83;;;4.43;;
22129;SDS011;11231;50.746;4.272;2023-07-31T05:38:22;11.07;;;4.40;;
22129;SDS011;11231;50.746;4.272;2023-07-31T05:40:48;10.63;;;4.57;;
22129;SDS011;11231;50.746;4.272;2023-07-31T05:43:14;13.03;;;4.37;;
22129;SDS011;11231;50.746;4.272;2023-07-31T05:45:42;13.83;;;4.30;;
22129;SDS011;11231;50.746;4.272;2023-07-31T05:48:08;13.67;;;4.70;;
22129;SDS011;11231;50.746;4.272;2023-07-31T05:50:34;11.97;;;4.57;;
22129;SDS011;11231;50.746;4.272;2023-07-31T05:52:59;11.57;;;4.20;;
22129;SDS011;11231;50.746;4.272;2023-07-31T05:55:25;10.10;;;4.20;;
22129;SDS011;11231;50.746;4.272;2023-07-31T05:57:54;11.93;;;4.13;;
22129;SDS011;11231;50.746;4.272;2023-07-31T06:00:20;13.53;;;4.67;;
22129;SDS011;11231;50.746;4.272;2023-07-31T06:02:46;12.17;;;4.27;;
22129;SDS011;11231;50.746;4.272;2023-07-31T06:05:12;15.23;;;4.37;;
22129;SDS011;11231;50.746;4.272;2023-07-31T06:07:38;13.50;;;4.40;;
22129;SDS011;11231;50.746;4.272;2023-07-31T06:10:04;14.60;;;4.60;;
22129;SDS011;11231;50.746;4.272;2023-07-31T06:12:31;14.57;;;4.23;;
22129;SDS011;11231;50.746;4.272;2023-07-31T06:14:57;11.40;;;4.50;;
22129;SDS011;11231;50.746;4.272;2023-07-31T06:17:23;13.43;;;4.23;;
22129;SDS011;11231;50.746;4.272;2023-07-31T06:19:49;14.20;;;3.97;;
22129;SDS011;11231;50.746;4.272;2023-07-31T06:22:16;14.40;;;4.13;;
22129;SDS011;11231;50.746;4.272;2023-07-31T06:24:41;11.83;;;4.20;;
22129;SDS011;11231;50.746;4.272;2023-07-31T06:27:07;9.67;;;3.83;;
22129;SDS011;11231;50.746;4.272;2023-07-31T06:29:33;10.03;;;3.70;;
22129;SDS011;11231;50.746;4.272;2023-07-31T06:31:58;12.53;;;3.97;;
22129;SDS011;11231;50.746;4.272;2023-07-31T06:34:24;10.37;;;4.00;;
22129;SDS011;11231;50.746;4.272;2023-07-31T06:36:50;14.63;;;3.83;;
22129;SDS011;11231;50.746;4.272;2023-07-31T06:39:16;12.77;;;4.07;;
22129;SDS011;11231;50.746;4.272;2023-07-31T06:41:42;13.73;;;4.40;;
22129;SDS011;11231;50.746;4.272;2023-07-31T06:44:09;12.23;;;3.70;;
22129;SDS011;11231;50.746;4.272;2023-07-31T06:46:35;10.83;;;3.80;;
22129;SDS011;11231;50.746;4.272;2023-07-31T06:49:01;11.30;;;3.50;;
22129;SDS011;11231;50.746;4.272;2023-07-31T06:51:27;14.57;;;3.67;;
22129;SDS011;11231;50.746;4.272;2023-07-31T06:53:53;10.73;;;3.60;;
22129;SDS011;11231;50.746;4.272;2023-07-31T06:56:18;9.23;;;3.47;;
22129;SDS011;11231;50.746;4.272;2023-07-31T06:58:45;8.90;;;3.20;;
22129;SDS011;11231;50.746;4.272;2023-07-31T07:01:11;7.97;;;3.47;;
22129;SDS011;11231;50.746;4.272;2023-07-31T07:03:37;9.47;;;3.30;;
22129;SDS011;11231;50.746;4.272;2023-07-31T07:06:02;10.53;;;3.07;;
22129;SDS011;11231;50.746;4.272;2023-07-31T07:08:28;12.17;;;3.43;;
22129;SDS011;11231;50.746;4.272;2023-07-31T07:10:54;9.80;;;3.03;;
22129;SDS011;11231;50.746;4.272;2023-07-31T07:13:21;10.43;;;3.27;;
22129;SDS011;11231;50.746;4.272;2023-07-31T07:15:49;8.47;;;2.93;;
22129;SDS011;11231;50.746;4.272;2023-07-31T07:18:16;8.30;;;3.00;;
22129;SDS011;11231;50.746;4.272;2023-07-31T07:20:51;13.47;;;3.53;;
22129;SDS011;11231;50.746;4.272;2023-07-31T07:23:18;7.77;;;3.00;;
22129;SDS011;11231;50.746;4.272;2023-07-31T07:25:45;9.90;;;3.60;;
22129;SDS011;11231;50.746;4.272;2023-07-31T07:28:11;12.00;;;3.20;;
22129;SDS011;11231;50.746;4.272;2023-07-31T07:30:37;11.63;;;3.50;;
22129;SDS011;11231;50.746;4.272;2023-07-31T07:33:03;9.93;;;3.30;;
22129;SDS011;11231;50.746;4.272;2023-07-31T07:35:29;9.57;;;2.90;;
22129;SDS011;11231;50.746;4.272;2023-07-31T07:37:54;10.37;;;3.73;;
22129;SDS011;11231;50.746;4.272;2023-07-31T07:40:20;10.63;;;3.40;;
22129;SDS011;11231;50.746;4.272;2023-07-31T07:42:46;12.33;;;3.30;;
22129;SDS011;11231;50.746;4.272;2023-07-31T07:45:12;6.80;;;2.70;;
22129;SDS011;11231;50.746;4.272;2023-07-31T07:47:40;9.13;;;3.10;;
22129;SDS011;11231;50.746;4.272;2023-07-31T07:50:06;9.80;;;3.47;;
22129;SDS011;11231;50.746;4.272;2023-07-31T07:52:32;8.00;;;3.10;;
22129;SDS011;11231;50.746;4.272;2023-07-31T07:54:57;9.17;;;2.93;;
22129;SDS011;11231;50.746;4.272;2023-07-31T07:57:23;9.90;;;3.17;;
22129;SDS011;11231;50.746;4.272;2023-07-31T07:59:49;10.03;;;3.07;;
22129;SDS011;11231;50.746;4.272;2023-07-31T08:02:14;7.13;;;2.87;;
22129;SDS011;11231;50.746;4.272;2023-07-31T08:04:41;9.30;;;3.23;;
22129;SDS011;11231;50.746;4.272;2023-07-31T08:07:06;6.77;;;2.80;;
22129;SDS011;11231;50.746;4.272;2023-07-31T08:09:32;10.43;;;2.90;;
22129;SDS011;11231;50.746;4.272;2023-07-31T08:11:58;9.80;;;3.10;;
22129;SDS011;11231;50.746;4.272;2023-07-31T08:14:27;7.77;;;2.80;;
22129;SDS011;11231;50.746;4.272;2023-07-31T08:16:53;12.90;;;3.23;;
22129;SDS011;11231;50.746;4.272;2023-07-31T08:19:18;10.10;;;3.13;;
22129;SDS011;11231;50.746;4.272;2023-07-31T08:21:44;12.70;;;3.13;;
22129;SDS011;11231;50.746;4.272;2023-07-31T08:24:10;8.57;;;2.97;;
22129;SDS011;11231;50.746;4.272;2023-07-31T08:26:35;7.67;;;3.03;;
22129;SDS011;11231;50.746;4.272;2023-07-31T08:29:01;11.73;;;3.23;;
22129;SDS011;11231;50.746;4.272;2023-07-31T08:31:27;8.90;;;3.20;;
22129;SDS011;11231;50.746;4.272;2023-07-31T08:33:54;12.70;;;3.00;;
22129;SDS011;11231;50.746;4.272;2023-07-31T08:36:20;11.40;;;3.30;;
22129;SDS011;11231;50.746;4.272;2023-07-31T08:38:46;10.73;;;3.10;;
22129;SDS011;11231;50.746;4.272;2023-07-31T08:41:11;10.60;;;3.07;;
22129;SDS011;11231;50.746;4.272;2023-07-31T08:43:38;9.00;;;2.80;;
22129;SDS011;11231;50.746;4.272;2023-07-31T08:46:04;11.83;;;3.03;;
22129;SDS011;11231;50.746;4.272;2023-07-31T08:48:31;9.83;;;3.10;;
22129;SDS011;11231;50.746;4.272;2023-07-31T08:50:57;9.27;;;3.37;;
22129;SDS011;11231;50.746;4.272;2023-07-31T08:53:23;11.43;;;3.27;;
22129;SDS011;11231;50.746;4.272;2023-07-31T08:55:49;9.20;;;3.50;;
22129;SDS011;11231;50.746;4.272;2023-07-31T08:58:15;9.13;;;2.97;;
22129;SDS011;11231;50.746;4.272;2023-07-31T09:00:42;8.90;;;3.10;;
22129;SDS011;11231;50.746;4.272;2023-07-31T09:03:11;10.37;;;3.10;;
22129;SDS011;11231;50.746;4.272;2023-07-31T09:05:41;10.03;;;3.20;;
22129;SDS011;11231;50.746;4.272;2023-07-31T09:08:10;9.33;;;3.30;;
22129;SDS011;11231;50.746;4.272;2023-07-31T09:10:43;10.40;;;2.90;;
22129;SDS011;11231;50.746;4.272;2023-07-31T09:13:13;10.13;;;3.77;;
22129;SDS011;11231;50.746;4.272;2023-07-31T09:15:39;9.90;;;3.30;;
22129;SDS011;11231;50.746;4.272;2023-07-31T09:18:06;13.57;;;3.63;;
22129;SDS011;11231;50.746;4.272;2023-07-31T09:20:32;11.03;;;3.50;;
22129;SDS011;11231;50.746;4.272;2023-07-31T09:23:04;10.37;;;3.33;;
22129;SDS011;11231;50.746;4.272;2023-07-31T09:25:34;9.57;;;3.40;;
22129;SDS011;11231;50.746;4.272;2023-07-31T09:28:00;12.17;;;3.63;;
22129;SDS011;11231;50.746;4.272;2023-07-31T09:30:28;12.00;;;3.83;;
22129;SDS011;11231;50.746;4.272;2023-07-31T09:33:00;11.60;;;3.80;;
22129;SDS011;11231;50.746;4.272;2023-07-31T09:35:28;12.37;;;4.10;;
22129;SDS011;11231;50.746;4.272;2023-07-31T09:37:59;11.30;;;4.10;;
22129;SDS011;11231;50.746;4.272;2023-07-31T09:40:37;10.37;;;3.90;;
22129;SDS011;11231;50.746;4.272;2023-07-31T09:43:05;13.57;;;4.10;;
22129;SDS011;11231;50.746;4.272;2023-07-31T09:45:39;10.40;;;4.00;;
22129;SDS011;11231;50.746;4.272;2023-07-31T09:48:07;9.87;;;3.80;;
22129;SDS011;11231;50.746;4.272;2023-07-31T09:50:34;10.50;;;3.97;;
22129;SDS011;11231;50.746;4.272;2023-07-31T09:53:06;9.33;;;4.17;;
22129;SDS011;11231;50.746;4.272;2023-07-31T09:55:33;9.50;;;4.23;;
22129;SDS011;11231;50.746;4.272;2023-07-31T09:57:59;9.80;;;4.00;;
22129;SDS011;11231;50.746;4.272;2023-07-31T10:00:28;12.03;;;4.20;;
22129;SDS011;11231;50.746;4.272;2023-07-31T10:02:57;14.77;;;4.90;;
22129;SDS011;11231;50.746;4.272;2023-07-31T10:05:24;13.87;;;4.33;;
22129;SDS011;11231;50.746;4.272;2023-07-31T10:07:59;12.90;;;3.87;;
22129;SDS011;11231;50.746;4.272;2023-07-31T10:10:25;13.30;;;4.53;;
22129;SDS011;11231;50.746;4.272;2023-07-31T10:12:52;14.20;;;4.80;;
22129;SDS011;11231;50.746;4.272;2023-07-31T10:15:19;10.60;;;4.50;;
22129;SDS011;11231;50.746;4.272;2023-07-31T10:17:48;10.40;;;4.47;;
22129;SDS011;11231;50.746;4.272;2023-07-31T10:20:15;11.87;;;4.53;;
22129;SDS011;11231;50.746;4.272;2023-07-31T10:22:42;15.13;;;4.97;;
22129;SDS011;11231;50.746;4.272;2023-07-31T10:25:13;12.83;;;4.50;;
22129;SDS011;11231;50.746;4.272;2023-07-31T10:27:40;12.63;;;4.77;;
22129;SDS011;11231;50.746;4.272;2023-07-31T10:30:08;11.30;;;4.10;;
22129;SDS011;11231;50.746;4.272;2023-07-31T10:32:36;12.63;;;4.53;;
22129;SDS011;11231;50.746;4.272;2023-07-31T10:35:05;12.67;;;4.47;;
22129;SDS011;11231;50.746;4.272;2023-07-31T10:37:36;13.23;;;4.50;;
22129;SDS011;11231;50.746;4.272;2023-07-31T10:42:47;13.30;;;4.50;;
22129;SDS011;11231;50.746;4.272;2023-07-31T10:45:13;11.80;;;4.80;;
22129;SDS011;11231;50.746;4.272;2023-07-31T10:47:48;12.10;;;4.60;;
22129;SDS011;11231;50.746;4.272;2023-07-31T10:50:21;11.87;;;4.43;;
22129;SDS011;11231;50.746;4.272;2023-07-31T10:52:49;14.87;;;4.80;;
22129;SDS011;11231;50.746;4.272;2023-07-31T10:55:24;17.40;;;4.33;;
22129;SDS011;11231;50.746;4.272;2023-07-31T10:57:55;12.47;;;4.70;;
22129;SDS011;11231;50.746;4.272;2023-07-31T11:00:24;13.70;;;4.60;;
22129;SDS011;11231;50.746;4.272;2023-07-31T11:03:02;10.57;;;4.17;;
22129;SDS011;11231;50.746;4.272;2023-07-31T11:08:10;11.60;;;4.07;;
22129;SDS011;11231;50.746;4.272;2023-07-31T11:10:39;13.10;;;4.37;;
22129;SDS011;11231;50.746;4.272;2023-07-31T11:13:05;13.37;;;4.43;;
22129;SDS011;11231;50.746;4.272;2023-07-31T11:15:31;15.30;;;4.43;;
22129;SDS011;11231;50.746;4.272;2023-07-31T11:17:56;12.00;;;4.07;;
22129;SDS011;11231;50.746;4.272;2023-07-31T11:20:25;13.13;;;4.43;;
22129;SDS011;11231;50.746;4.272;2023-07-31T11:22:51;11.37;;;4.10;;
22129;SDS011;11231;50.746;4.272;2023-07-31T11:25:17;10.27;;;4.10;;
22129;SDS011;11231;50.746;4.272;2023-07-31T11:27:43;13.77;;;4.60;;
22129;SDS011;11231;50.746;4.272;2023-07-31T11:30:09;11.93;;;4.20;;
22129;SDS011;11231;50.746;4.272;2023-07-31T11:32:36;13.33;;;4.40;;
22129;SDS011;11231;50.746;4.272;2023-07-31T11:35:02;13.43;;;4.50;;
22129;SDS011;11231;50.746;4.272;2023-07-31T11:37:39;13.93;;;4.47;;
22129;SDS011;11231;50.746;4.272;2023-07-31T11:40:06;13.17;;;4.40;;
22129;SDS011;11231;50.746;4.272;2023-07-31T11:42:32;12.27;;;3.80;;
22129;SDS011;11231;50.746;4.272;2023-07-31T11:45:01;12.40;;;4.40;;
22129;SDS011;11231;50.746;4.272;2023-07-31T11:47:28;11.97;;;4.00;;
22129;SDS011;11231;50.746;4.272;2023-07-31T11:49:55;11.47;;;4.00;;
22129;SDS011;11231;50.746;4.272;2023-07-31T11:52:21;14.73;;;4.30;;
22129;SDS011;11231;50.746;4.272;2023-07-31T11:54:48;11.07;;;3.93;;
22129;SDS011;11231;50.746;4.272;2023-07-31T11:57:14;11.73;;;4.07;;
22129;SDS011;11231;50.746;4.272;2023-07-31T11:59:41;13.10;;;4.27;;
22129;SDS011;11231;50.746;4.272;2023-07-31T12:02:07;11.93;;;4.20;;
22129;SDS011;11231;50.746;4.272;2023-07-31T12:04:34;12.60;;;4.13;;
22129;SDS011;11231;50.746;4.272;2023-07-31T12:07:00;14.13;;;4.43;;
22129;SDS011;11231;50.746;4.272;2023-07-31T12:09:26;12.87;;;4.47;;
22129;SDS011;11231;50.746;4.272;2023-07-31T12:11:52;9.67;;;4.10;;
22129;SDS011;11231;50.746;4.272;2023-07-31T12:16:55;11.47;;;4.30;;
22129;SDS011;11231;50.746;4.272;2023-07-31T12:19:25;13.07;;;4.73;;
22129;SDS011;11231;50.746;4.272;2023-07-31T12:21:58;15.50;;;4.30;;
22129;SDS011;11231;50.746;4.272;2023-07-31T12:24:28;10.37;;;3.90;;
22129;SDS011;11231;50.746;4.272;2023-07-31T12:26:54;12.63;;;4.30;;
22129;SDS011;11231;50.746;4.272;2023-07-31T12:29:20;13.63;;;4.57;;
22129;SDS011;11231;50.746;4.272;2023-07-31T12:31:46;14.30;;;4.80;;
22129;SDS011;11231;50.746;4.272;2023-07-31T12:34:15;11.87;;;3.93;;
22129;SDS011;11231;50.746;4.272;2023-07-31T12:36:42;13.33;;;4.30;;
22129;SDS011;11231;50.746;4.272;2023-07-31T12:39:08;12.70;;;4.23;;
22129;SDS011;11231;50.746;4.272;2023-07-31T12:41:35;11.10;;;3.93;;
22129;SDS011;11231;50.746;4.272;2023-07-31T12:44:00;13.53;;;4.67;;
22129;SDS011;11231;50.746;4.272;2023-07-31T12:46:26;14.53;;;4.43;;
22129;SDS011;11231;50.746;4.272;2023-07-31T12:48:52;13.43;;;4.63;;
22129;SDS011;11231;50.746;4.272;2023-07-31T12:51:18;11.23;;;4.60;;
22129;SDS011;11231;50.746;4.272;2023-07-31T12:53:43;13.80;;;4.83;;
22129;SDS011;11231;50.746;4.272;2023-07-31T12:56:09;13.77;;;4.93;;
22129;SDS011;11231;50.746;4.272;2023-07-31T12:58:35;14.27;;;4.93;;
22129;SDS011;11231;50.746;4.272;2023-07-31T13:01:00;16.33;;;4.90;;
22129;SDS011;11231;50.746;4.272;2023-07-31T13:03:27;12.00;;;4.77;;
22129;SDS011;11231;50.746;4.272;2023-07-31T13:05:53;13.33;;;3.83;;
22129;SDS011;11231;50.746;4.272;2023-07-31T13:08:19;11.57;;;3.83;;
22129;SDS011;11231;50.746;4.272;2023-07-31T13:10:45;16.37;;;4.77;;
22129;SDS011;11231;50.746;4.272;2023-07-31T13:13:10;8.50;;;3.60;;
22129;SDS011;11231;50.746;4.272;2023-07-31T13:15:36;15.13;;;4.93;;
22129;SDS011;11231;50.746;4.272;2023-07-31T13:18:02;14.20;;;6.00;;
22129;SDS011;11231;50.746;4.272;2023-07-31T13:20:27;8.97;;;3.67;;
22129;SDS011;11231;50.746;4.272;2023-07-31T13:22:53;10.70;;;3.90;;
22129;SDS011;11231;50.746;4.272;2023-07-31T13:25:19;12.90;;;4.00;;
22129;SDS011;11231;50.746;4.272;2023-07-31T13:27:44;13.73;;;3.83;;
22129;SDS011;11231;50.746;4.272;2023-07-31T13:30:10;11.33;;;3.63;;
22129;SDS011;11231;50.746;4.272;2023-07-31T13:32:36;13.33;;;4.20;;
22129;SDS011;11231;50.746;4.272;2023-07-31T13:35:04;11.83;;;3.93;;
22129;SDS011;11231;50.746;4.272;2023-07-31T13:37:31;13.00;;;4.57;;
22129;SDS011;11231;50.746;4.272;2023-07-31T13:39:56;12.17;;;4.13;;
22129;SDS011;11231;50.746;4.272;2023-07-31T13:42:22;9.73;;;4.30;;
22129;SDS011;11231;50.746;4.272;2023-07-31T13:44:48;11.57;;;4.13;;
22129;SDS011;11231;50.746;4.272;2023-07-31T13:47:14;12.40;;;4.13;;
22129;SDS011;11231;50.746;4.272;2023-07-31T13:49:40;9.40;;;4.07;;
22129;SDS011;11231;50.746;4.272;2023-07-31T13:52:08;10.30;;;4.03;;
22129;SDS011;11231;50.746;4.272;2023-07-31T13:54:34;11.63;;;4.50;;
22129;SDS011;11231;50.746;4.272;2023-07-31T13:56:59;9.07;;;3.57;;
22129;SDS011;11231;50.746;4.272;2023-07-31T13:59:25;10.97;;;3.73;;
22129;SDS011;11231;50.746;4.272;2023-07-31T14:01:51;10.53;;;3.70;;
22129;SDS011;11231;50.746;4.272;2023-07-31T14:04:17;12.37;;;3.90;;
22129;SDS011;11231;50.746;4.272;2023-07-31T14:06:43;9.00;;;3.77;;
22129;SDS011;11231;50.746;4.272;2023-07-31T14:09:09;9.37;;;3.90;;
22129;SDS011;11231;50.746;4.272;2023-07-31T14:11:35;11.73;;;3.67;;
22129;SDS011;11231;50.746;4.272;2023-07-31T14:14:00;14.03;;;4.17;;
22129;SDS011;11231;50.746;4.272;2023-07-31T14:16:29;10.53;;;4.17;;
22129;SDS011;11231;50.746;4.272;2023-07-31T14:18:55;10.27;;;3.67;;
22129;SDS011;11231;50.746;4.272;2023-07-31T14:21:21;10.33;;;3.50;;
22129;SDS011;11231;50.746;4.272;2023-07-31T14:23:46;9.40;;;3.43;;
22129;SDS011;11231;50.746;4.272;2023-07-31T14:26:12;9.83;;;3.33;;
22129;SDS011;11231;50.746;4.272;2023-07-31T14:28:38;9.10;;;3.40;;
22129;SDS011;11231;50.746;4.272;2023-07-31T14:31:03;11.47;;;3.53;;
22129;SDS011;11231;50.746;4.272;2023-07-31T14:33:29;7.83;;;3.30;;
22129;SDS011;11231;50.746;4.272;2023-07-31T14:35:55;7.47;;;3.20;;
22129;SDS011;11231;50.746;4.272;2023-07-31T14:38:21;7.77;;;3.00;;
22129;SDS011;11231;50.746;4.272;2023-07-31T14:40:46;8.20;;;2.87;;
22129;SDS011;11231;50.746;4.272;2023-07-31T14:43:12;7.80;;;2.90;;
22129;SDS011;11231;50.746;4.272;2023-07-31T14:45:38;8.50;;;2.70;;